sensor_id;sensor_type;location;lat;lon;timestamp;P1;durP1;ratioP1;P2;durP2;ratioP2
12635;SDS011;6383;50.830;7.210;2024-01-15T00:02:27;26.58;;;17.42;;
12635;SDS011;6383;50.830;7.210;2024-01-15T00:04:55;31.67;;;18.02;;
12635;SDS011;6383;50.830;7.210;2024-01-15T00:07:23;26.30;;;16.75;;
12635;SDS011;6383;50.830;7.210;2024-01-15T00:09:51;27.08;;;17.33;;
12635;SDS011;6383;50.830;7.210;2024-01-15T00:12:19;28.63;;;16.80;;
12635;SDS011;6383;50.830;7.210;2024-01-15T00:14:47;27.70;;;17.70;;
12635;SDS011;6383;50.830;7.210;2024-01-15T00:17:15;24.35;;;17.08;;
12635;SDS011;6383;50.830;7.210;2024-01-15T00:19:46;28.98;;;17.42;;
12635;SDS011;6383;50.830;7.210;2024-01-15T00:22:13;28.00;;;17.08;;
12635;SDS011;6383;50.830;7.210;2024-01-15T00:24:41;26.80;;;17.70;;
12635;SDS011;6383;50.830;7.210;2024-01-15T00:27:10;30.70;;;17.70;;
12635;SDS011;6383;50.830;7.210;2024-01-15T00:29:39;28.65;;;17.80;;
12635;SDS011;6383;50.830;7.210;2024-01-15T00:32:06;28.40;;;17.77;;
12635;SDS011;6383;50.830;7.210;2024-01-15T00:34:35;32.03;;;19.03;;
12635;SDS011;6383;50.830;7.210;2024-01-15T00:37:04;33.78;;;19.52;;
12635;SDS011;6383;50.830;7.210;2024-01-15T00:39:34;28.77;;;18.13;;
12635;SDS011;6383;50.830;7.210;2024-01-15T00:42:03;31.63;;;18.25;;
12635;SDS011;6383;50.830;7.210;2024-01-15T00:44:33;28.45;;;17.98;;
12635;SDS011;6383;50.830;7.210;2024-01-15T00:47:00;30.52;;;17.60;;
12635;SDS011;6383;50.830;7.210;2024-01-15T01:23:36;36.08;;;20.17;;
12635;SDS011;6383;50.830;7.210;2024-01-15T01:26:08;33.47;;;19.05;;
12635;SDS011;6383;50.830;7.210;2024-01-15T01:28:38;34.35;;;20.08;;
12635;SDS011;6383;50.830;7.210;2024-01-15T01:31:12;34.83;;;19.65;;
12635;SDS011;6383;50.830;7.210;2024-01-15T01:33:52;36.28;;;19.50;;
12635;SDS011;6383;50.830;7.210;2024-01-15T01:36:24;36.20;;;19.52;;
12635;SDS011;6383;50.830;7.210;2024-01-15T01:39:12;37.80;;;20.05;;
12635;SDS011;6383;50.830;7.210;2024-01-15T01:41:45;32.80;;;19.80;;
12635;SDS011;6383;50.830;7.210;2024-01-15T01:44:20;37.53;;;19.83;;
12635;SDS011;6383;50.830;7.210;2024-01-15T01:46:57;33.72;;;19.63;;
12635;SDS011;6383;50.830;7.210;2024-01-15T01:49:33;36.53;;;20.73;;
12635;SDS011;6383;50.830;7.210;2024-01-15T01:52:07;33.00;;;19.60;;
12635;SDS011;6383;50.830;7.210;2024-01-15T01:54:44;39.28;;;21.02;;
12635;SDS011;6383;50.830;7.210;2024-01-15T01:57:21;36.13;;;21.20;;
12635;SDS011;6383;50.830;7.210;2024-01-15T01:59:54;35.80;;;21.02;;
12635;SDS011;6383;50.830;7.210;2024-01-15T02:02:33;37.42;;;21.83;;
12635;SDS011;6383;50.830;7.210;2024-01-15T02:05:07;38.13;;;22.10;;
12635;SDS011;6383;50.830;7.210;2024-01-15T02:07:41;36.00;;;21.08;;
12635;SDS011;6383;50.830;7.210;2024-01-15T02:10:17;35.33;;;21.15;;
12635;SDS011;6383;50.830;7.210;2024-01-15T02:12:55;39.63;;;21.77;;
12635;SDS011;6383;50.830;7.210;2024-01-15T02:15:29;35.88;;;22.05;;
12635;SDS011;6383;50.830;7.210;2024-01-15T02:18:04;33.27;;;20.97;;
12635;SDS011;6383;50.830;7.210;2024-01-15T02:20:39;35.63;;;21.38;;
12635;SDS011;6383;50.830;7.210;2024-01-15T02:23:16;34.70;;;20.40;;
12635;SDS011;6383;50.830;7.210;2024-01-15T02:25:50;35.05;;;21.02;;
12635;SDS011;6383;50.830;7.210;2024-01-15T02:28:22;35.25;;;19.98;;
12635;SDS011;6383;50.830;7.210;2024-01-15T02:30:56;33.70;;;20.67;;
12635;SDS011;6383;50.830;7.210;2024-01-15T02:33:30;33.42;;;20.33;;
12635;SDS011;6383;50.830;7.210;2024-01-15T02:36:08;32.33;;;19.65;;
12635;SDS011;6383;50.830;7.210;2024-01-15T02:38:44;32.88;;;20.00;;
12635;SDS011;6383;50.830;7.210;2024-01-15T02:41:21;37.08;;;20.10;;
12635;SDS011;6383;50.830;7.210;2024-01-15T02:44:06;32.17;;;19.27;;
12635;SDS011;6383;50.830;7.210;2024-01-15T02:47:00;35.03;;;21.02;;
12635;SDS011;6383;50.830;7.210;2024-01-15T02:49:33;34.17;;;21.08;;
12635;SDS011;6383;50.830;7.210;2024-01-15T02:52:07;32.33;;;20.25;;
12635;SDS011;6383;50.830;7.210;2024-01-15T02:54:44;32.00;;;20.40;;
12635;SDS011;6383;50.830;7.210;2024-01-15T02:57:19;30.15;;;20.02;;
12635;SDS011;6383;50.830;7.210;2024-01-15T02:59:56;33.72;;;21.02;;
12635;SDS011;6383;50.830;7.210;2024-01-15T03:02:32;28.50;;;19.33;;
12635;SDS011;6383;50.830;7.210;2024-01-15T03:05:12;30.25;;;19.23;;
12635;SDS011;6383;50.830;7.210;2024-01-15T03:07:45;35.53;;;20.60;;
12635;SDS011;6383;50.830;7.210;2024-01-15T03:10:27;26.67;;;19.13;;
12635;SDS011;6383;50.830;7.210;2024-01-15T03:13:01;32.33;;;20.20;;
12635;SDS011;6383;50.830;7.210;2024-01-15T03:15:35;31.15;;;19.95;;
12635;SDS011;6383;50.830;7.210;2024-01-15T03:18:09;30.90;;;20.27;;
12635;SDS011;6383;50.830;7.210;2024-01-15T03:20:42;30.25;;;18.95;;
12635;SDS011;6383;50.830;7.210;2024-01-15T03:23:12;28.65;;;19.55;;
12635;SDS011;6383;50.830;7.210;2024-01-15T03:25:53;32.55;;;19.88;;
12635;SDS011;6383;50.830;7.210;2024-01-15T03:28:34;28.48;;;18.52;;
12635;SDS011;6383;50.830;7.210;2024-01-15T03:31:09;30.15;;;18.42;;
12635;SDS011;6383;50.830;7.210;2024-01-15T03:33:43;30.83;;;19.83;;
12635;SDS011;6383;50.830;7.210;2024-01-15T03:36:20;28.25;;;18.45;;
12635;SDS011;6383;50.830;7.210;2024-01-15T03:38:55;30.02;;;18.73;;
12635;SDS011;6383;50.830;7.210;2024-01-15T03:41:30;29.42;;;18.98;;
12635;SDS011;6383;50.830;7.210;2024-01-15T03:44:02;29.55;;;18.45;;
12635;SDS011;6383;50.830;7.210;2024-01-15T03:46:40;28.10;;;18.83;;
12635;SDS011;6383;50.830;7.210;2024-01-15T03:49:13;27.75;;;18.20;;
12635;SDS011;6383;50.830;7.210;2024-01-15T03:51:57;28.15;;;17.48;;
12635;SDS011;6383;50.830;7.210;2024-01-15T03:54:34;25.15;;;16.90;;
12635;SDS011;6383;50.830;7.210;2024-01-15T03:57:20;26.77;;;17.63;;
12635;SDS011;6383;50.830;7.210;2024-01-15T04:00:08;25.85;;;17.45;;
12635;SDS011;6383;50.830;7.210;2024-01-15T04:02:41;24.88;;;17.02;;
12635;SDS011;6383;50.830;7.210;2024-01-15T04:05:17;23.83;;;17.10;;
12635;SDS011;6383;50.830;7.210;2024-01-15T04:07:54;23.05;;;16.90;;
12635;SDS011;6383;50.830;7.210;2024-01-15T04:10:33;25.38;;;16.60;;
12635;SDS011;6383;50.830;7.210;2024-01-15T04:13:24;25.42;;;16.65;;
12635;SDS011;6383;50.830;7.210;2024-01-15T04:16:02;23.50;;;16.02;;
12635;SDS011;6383;50.830;7.210;2024-01-15T04:18:38;23.67;;;17.17;;
12635;SDS011;6383;50.830;7.210;2024-01-15T04:21:20;24.20;;;17.17;;
12635;SDS011;6383;50.830;7.210;2024-01-15T04:23:56;23.67;;;17.42;;
12635;SDS011;6383;50.830;7.210;2024-01-15T04:26:36;25.20;;;17.23;;
12635;SDS011;6383;50.830;7.210;2024-01-15T04:29:14;27.15;;;17.77;;
12635;SDS011;6383;50.830;7.210;2024-01-15T04:31:48;27.15;;;17.83;;
12635;SDS011;6383;50.830;7.210;2024-01-15T04:34:25;26.63;;;17.52;;
12635;SDS011;6383;50.830;7.210;2024-01-15T04:37:01;23.38;;;16.40;;
12635;SDS011;6383;50.830;7.210;2024-01-15T04:39:39;28.58;;;18.50;;
12635;SDS011;6383;50.830;7.210;2024-01-15T04:42:18;25.80;;;16.95;;
12635;SDS011;6383;50.830;7.210;2024-01-15T04:44:55;25.08;;;17.52;;
12635;SDS011;6383;50.830;7.210;2024-01-15T04:47:28;23.63;;;17.25;;
12635;SDS011;6383;50.830;7.210;2024-01-15T04:50:06;28.45;;;18.15;;
12635;SDS011;6383;50.830;7.210;2024-01-15T04:52:50;25.43;;;16.53;;
12635;SDS011;6383;50.830;7.210;2024-01-15T04:55:31;25.02;;;16.88;;
12635;SDS011;6383;50.830;7.210;2024-01-15T04:58:08;24.67;;;17.37;;
12635;SDS011;6383;50.830;7.210;2024-01-15T05:00:43;23.25;;;17.15;;
12635;SDS011;6383;50.830;7.210;2024-01-15T05:03:19;20.90;;;16.15;;
12635;SDS011;6383;50.830;7.210;2024-01-15T05:06:01;27.60;;;16.25;;
12635;SDS011;6383;50.830;7.210;2024-01-15T05:08:53;22.38;;;15.10;;
12635;SDS011;6383;50.830;7.210;2024-01-15T05:11:37;21.98;;;14.75;;
12635;SDS011;6383;50.830;7.210;2024-01-15T05:14:16;19.55;;;14.38;;
12635;SDS011;6383;50.830;7.210;2024-01-15T05:16:59;21.95;;;15.15;;
12635;SDS011;6383;50.830;7.210;2024-01-15T05:19:37;21.95;;;15.45;;
12635;SDS011;6383;50.830;7.210;2024-01-15T05:22:28;22.83;;;14.73;;
12635;SDS011;6383;50.830;7.210;2024-01-15T05:25:08;17.17;;;13.70;;
12635;SDS011;6383;50.830;7.210;2024-01-15T05:27:45;21.33;;;14.85;;
12635;SDS011;6383;50.830;7.210;2024-01-15T05:30:21;21.27;;;14.50;;
12635;SDS011;6383;50.830;7.210;2024-01-15T05:33:07;21.48;;;15.30;;
12635;SDS011;6383;50.830;7.210;2024-01-15T05:35:47;23.25;;;16.05;;
12635;SDS011;6383;50.830;7.210;2024-01-15T05:38:19;19.70;;;14.13;;
12635;SDS011;6383;50.830;7.210;2024-01-15T05:40:54;23.17;;;14.65;;
12635;SDS011;6383;50.830;7.210;2024-01-15T05:43:30;24.20;;;16.37;;
12635;SDS011;6383;50.830;7.210;2024-01-15T05:46:02;24.20;;;17.35;;
12635;SDS011;6383;50.830;7.210;2024-01-15T05:48:43;22.63;;;14.90;;
12635;SDS011;6383;50.830;7.210;2024-01-15T05:51:18;29.93;;;25.10;;
12635;SDS011;6383;50.830;7.210;2024-01-15T05:53:57;19.67;;;13.70;;
12635;SDS011;6383;50.830;7.210;2024-01-15T05:56:47;22.33;;;14.63;;
12635;SDS011;6383;50.830;7.210;2024-01-15T05:59:30;20.10;;;14.53;;
12635;SDS011;6383;50.830;7.210;2024-01-15T06:02:15;20.50;;;14.48;;
12635;SDS011;6383;50.830;7.210;2024-01-15T06:05:02;20.50;;;15.20;;
12635;SDS011;6383;50.830;7.210;2024-01-15T06:07:47;19.33;;;14.65;;
12635;SDS011;6383;50.830;7.210;2024-01-15T06:13:37;21.17;;;14.32;;
12635;SDS011;6383;50.830;7.210;2024-01-15T06:16:43;21.75;;;14.23;;
12635;SDS011;6383;50.830;7.210;2024-01-15T06:19:27;19.85;;;13.77;;
12635;SDS011;6383;50.830;7.210;2024-01-15T06:22:11;17.65;;;14.05;;
12635;SDS011;6383;50.830;7.210;2024-01-15T06:24:45;19.17;;;14.68;;
12635;SDS011;6383;50.830;7.210;2024-01-15T06:27:29;20.08;;;14.75;;
12635;SDS011;6383;50.830;7.210;2024-01-15T06:30:16;18.58;;;13.95;;
12635;SDS011;6383;50.830;7.210;2024-01-15T06:32:57;20.87;;;15.77;;
12635;SDS011;6383;50.830;7.210;2024-01-15T06:35:30;19.95;;;15.18;;
12635;SDS011;6383;50.830;7.210;2024-01-15T06:38:13;18.92;;;14.23;;
12635;SDS011;6383;50.830;7.210;2024-01-15T06:41:11;18.45;;;13.20;;
12635;SDS011;6383;50.830;7.210;2024-01-15T06:43:59;18.77;;;14.15;;
12635;SDS011;6383;50.830;7.210;2024-01-15T06:46:59;18.40;;;14.35;;
12635;SDS011;6383;50.830;7.210;2024-01-15T06:49:41;17.90;;;14.07;;
12635;SDS011;6383;50.830;7.210;2024-01-15T06:52:28;18.90;;;13.85;;
12635;SDS011;6383;50.830;7.210;2024-01-15T06:55:21;18.48;;;14.38;;
12635;SDS011;6383;50.830;7.210;2024-01-15T06:58:18;17.77;;;13.82;;
12635;SDS011;6383;50.830;7.210;2024-01-15T07:00:54;18.73;;;14.77;;
12635;SDS011;6383;50.830;7.210;2024-01-15T07:03:38;21.38;;;15.45;;
12635;SDS011;6383;50.830;7.210;2024-01-15T07:06:25;21.70;;;15.63;;
12635;SDS011;6383;50.830;7.210;2024-01-15T07:09:03;19.33;;;14.18;;
12635;SDS011;6383;50.830;7.210;2024-01-15T07:11:54;18.60;;;14.65;;
12635;SDS011;6383;50.830;7.210;2024-01-15T07:14:55;21.25;;;14.95;;
12635;SDS011;6383;50.830;7.210;2024-01-15T07:17:45;23.07;;;15.23;;
12635;SDS011;6383;50.830;7.210;2024-01-15T07:20:26;19.45;;;14.05;;
12635;SDS011;6383;50.830;7.210;2024-01-15T07:23:01;20.17;;;15.10;;
12635;SDS011;6383;50.830;7.210;2024-01-15T07:25:44;19.77;;;14.93;;
12635;SDS011;6383;50.830;7.210;2024-01-15T07:28:29;20.60;;;15.00;;
12635;SDS011;6383;50.830;7.210;2024-01-15T07:31:04;22.70;;;15.50;;
12635;SDS011;6383;50.830;7.210;2024-01-15T07:33:45;24.23;;;15.98;;
12635;SDS011;6383;50.830;7.210;2024-01-15T07:36:25;22.58;;;15.10;;
12635;SDS011;6383;50.830;7.210;2024-01-15T07:39:14;23.73;;;15.90;;
12635;SDS011;6383;50.830;7.210;2024-01-15T07:41:58;24.67;;;16.45;;
12635;SDS011;6383;50.830;7.210;2024-01-15T07:44:49;22.48;;;16.35;;
12635;SDS011;6383;50.830;7.210;2024-01-15T07:47:31;22.00;;;16.23;;
12635;SDS011;6383;50.830;7.210;2024-01-15T07:50:16;24.73;;;17.65;;
12635;SDS011;6383;50.830;7.210;2024-01-15T07:52:54;26.95;;;18.05;;
12635;SDS011;6383;50.830;7.210;2024-01-15T07:55:42;25.63;;;18.17;;
12635;SDS011;6383;50.830;7.210;2024-01-15T07:58:16;31.48;;;23.55;;
12635;SDS011;6383;50.830;7.210;2024-01-15T08:00:56;37.13;;;25.88;;
12635;SDS011;6383;50.830;7.210;2024-01-15T08:03:30;41.40;;;30.50;;
12635;SDS011;6383;50.830;7.210;2024-01-15T08:06:09;27.30;;;17.70;;
12635;SDS011;6383;50.830;7.210;2024-01-15T08:08:47;28.05;;;20.75;;
12635;SDS011;6383;50.830;7.210;2024-01-15T08:11:24;25.52;;;15.77;;
12635;SDS011;6383;50.830;7.210;2024-01-15T08:14:16;26.25;;;15.95;;
12635;SDS011;6383;50.830;7.210;2024-01-15T08:20:14;22.15;;;14.60;;
12635;SDS011;6383;50.830;7.210;2024-01-15T08:22:57;22.83;;;14.98;;
12635;SDS011;6383;50.830;7.210;2024-01-15T08:25:38;21.52;;;15.63;;
12635;SDS011;6383;50.830;7.210;2024-01-15T08:28:24;21.30;;;14.30;;
12635;SDS011;6383;50.830;7.210;2024-01-15T08:31:06;22.53;;;14.30;;
12635;SDS011;6383;50.830;7.210;2024-01-15T08:33:41;28.50;;;18.50;;
12635;SDS011;6383;50.830;7.210;2024-01-15T08:36:24;29.27;;;20.02;;
12635;SDS011;6383;50.830;7.210;2024-01-15T08:39:13;22.15;;;15.32;;
12635;SDS011;6383;50.830;7.210;2024-01-15T08:41:52;22.90;;;14.10;;
12635;SDS011;6383;50.830;7.210;2024-01-15T08:45:03;22.38;;;13.85;;
12635;SDS011;6383;50.830;7.210;2024-01-15T08:47:31;21.98;;;16.08;;
12635;SDS011;6383;50.830;7.210;2024-01-15T08:50:33;28.42;;;17.02;;
12635;SDS011;6383;50.830;7.210;2024-01-15T08:53:27;21.63;;;12.23;;
12635;SDS011;6383;50.830;7.210;2024-01-15T08:56:08;18.42;;;13.90;;
12635;SDS011;6383;50.830;7.210;2024-01-15T08:58:51;22.37;;;14.83;;
12635;SDS011;6383;50.830;7.210;2024-01-15T09:01:37;22.92;;;12.73;;
12635;SDS011;6383;50.830;7.210;2024-01-15T09:04:24;19.75;;;12.38;;
12635;SDS011;6383;50.830;7.210;2024-01-15T09:07:04;20.90;;;14.80;;
12635;SDS011;6383;50.830;7.210;2024-01-15T09:09:43;22.00;;;16.50;;
12635;SDS011;6383;50.830;7.210;2024-01-15T09:12:29;24.40;;;15.75;;
12635;SDS011;6383;50.830;7.210;2024-01-15T09:15:13;20.02;;;13.93;;
12635;SDS011;6383;50.830;7.210;2024-01-15T09:20:54;25.98;;;14.60;;
12635;SDS011;6383;50.830;7.210;2024-01-15T09:23:38;21.35;;;13.75;;
12635;SDS011;6383;50.830;7.210;2024-01-15T09:26:22;24.38;;;14.40;;
12635;SDS011;6383;50.830;7.210;2024-01-15T09:28:58;26.48;;;14.85;;
12635;SDS011;6383;50.830;7.210;2024-01-15T09:31:33;21.33;;;14.63;;
12635;SDS011;6383;50.830;7.210;2024-01-15T09:34:10;21.52;;;14.05;;
12635;SDS011;6383;50.830;7.210;2024-01-15T09:36:45;19.05;;;13.80;;
12635;SDS011;6383;50.830;7.210;2024-01-15T09:39:20;22.77;;;13.70;;
12635;SDS011;6383;50.830;7.210;2024-01-15T09:42:06;22.42;;;13.52;;
12635;SDS011;6383;50.830;7.210;2024-01-15T09:44:47;22.33;;;14.07;;
12635;SDS011;6383;50.830;7.210;2024-01-15T09:47:36;22.70;;;14.60;;
12635;SDS011;6383;50.830;7.210;2024-01-15T09:50:21;23.53;;;13.77;;
12635;SDS011;6383;50.830;7.210;2024-01-15T09:53:01;18.60;;;13.07;;
12635;SDS011;6383;50.830;7.210;2024-01-15T09:55:40;18.30;;;13.50;;
12635;SDS011;6383;50.830;7.210;2024-01-15T09:58:19;23.92;;;13.15;;
12635;SDS011;6383;50.830;7.210;2024-01-15T10:01:02;18.63;;;13.57;;
12635;SDS011;6383;50.830;7.210;2024-01-15T10:03:44;20.60;;;12.55;;
12635;SDS011;6383;50.830;7.210;2024-01-15T10:06:25;21.08;;;15.43;;
12635;SDS011;6383;50.830;7.210;2024-01-15T10:10:17;15.25;;;11.50;;
12635;SDS011;6383;50.830;7.210;2024-01-15T10:12:15;19.30;;;12.35;;
12635;SDS011;6383;50.830;7.210;2024-01-15T10:14:53;15.63;;;11.18;;
12635;SDS011;6383;50.830;7.210;2024-01-15T10:17:31;15.07;;;10.88;;
12635;SDS011;6383;50.830;7.210;2024-01-15T10:20:12;14.57;;;10.07;;
12635;SDS011;6383;50.830;7.210;2024-01-15T10:22:51;13.67;;;9.80;;
12635;SDS011;6383;50.830;7.210;2024-01-15T10:25:37;9.82;;;8.25;;
12635;SDS011;6383;50.830;7.210;2024-01-15T10:28:25;11.50;;;8.43;;
12635;SDS011;6383;50.830;7.210;2024-01-15T10:31:02;14.02;;;8.70;;
12635;SDS011;6383;50.830;7.210;2024-01-15T10:33:51;10.93;;;8.63;;
12635;SDS011;6383;50.830;7.210;2024-01-15T10:36:29;12.25;;;8.93;;
12635;SDS011;6383;50.830;7.210;2024-01-15T10:39:24;9.90;;;8.02;;
12635;SDS011;6383;50.830;7.210;2024-01-15T10:42:03;11.35;;;7.72;;
12635;SDS011;6383;50.830;7.210;2024-01-15T10:44:48;9.90;;;7.90;;
12635;SDS011;6383;50.830;7.210;2024-01-15T10:47:29;12.10;;;7.80;;
12635;SDS011;6383;50.830;7.210;2024-01-15T10:50:13;11.45;;;8.73;;
12635;SDS011;6383;50.830;7.210;2024-01-15T10:52:54;14.15;;;8.95;;
12635;SDS011;6383;50.830;7.210;2024-01-15T10:55:43;12.45;;;8.95;;
12635;SDS011;6383;50.830;7.210;2024-01-15T10:58:24;13.15;;;8.93;;
12635;SDS011;6383;50.830;7.210;2024-01-15T11:01:10;12.93;;;10.07;;
12635;SDS011;6383;50.830;7.210;2024-01-15T11:04:04;10.82;;;8.75;;
12635;SDS011;6383;50.830;7.210;2024-01-15T11:07:01;11.83;;;8.60;;
12635;SDS011;6383;50.830;7.210;2024-01-15T11:09:48;15.00;;;10.00;;
12635;SDS011;6383;50.830;7.210;2024-01-15T11:12:43;14.05;;;9.20;;
12635;SDS011;6383;50.830;7.210;2024-01-15T11:19:00;11.90;;;9.75;;
12635;SDS011;6383;50.830;7.210;2024-01-15T11:21:56;9.15;;;8.07;;
12635;SDS011;6383;50.830;7.210;2024-01-15T11:24:37;10.13;;;8.30;;
12635;SDS011;6383;50.830;7.210;2024-01-15T11:27:16;9.38;;;8.35;;
12635;SDS011;6383;50.830;7.210;2024-01-15T11:30:24;12.57;;;9.02;;
12635;SDS011;6383;50.830;7.210;2024-01-15T11:36:21;11.07;;;9.18;;
12635;SDS011;6383;50.830;7.210;2024-01-15T11:42:15;11.07;;;9.60;;
12635;SDS011;6383;50.830;7.210;2024-01-15T11:45:03;13.87;;;10.07;;
12635;SDS011;6383;50.830;7.210;2024-01-15T11:50:47;12.65;;;10.88;;
12635;SDS011;6383;50.830;7.210;2024-01-15T11:53:39;13.20;;;11.77;;
12635;SDS011;6383;50.830;7.210;2024-01-15T11:56:24;13.85;;;12.48;;
12635;SDS011;6383;50.830;7.210;2024-01-15T11:59:02;13.57;;;12.20;;
12635;SDS011;6383;50.830;7.210;2024-01-15T12:01:43;14.07;;;12.68;;
12635;SDS011;6383;50.830;7.210;2024-01-15T12:04:34;14.55;;;13.20;;
12635;SDS011;6383;50.830;7.210;2024-01-15T12:07:17;15.83;;;14.27;;
12635;SDS011;6383;50.830;7.210;2024-01-15T12:09:58;14.85;;;13.35;;
12635;SDS011;6383;50.830;7.210;2024-01-15T12:12:37;13.13;;;11.80;;
12635;SDS011;6383;50.830;7.210;2024-01-15T12:15:30;17.70;;;15.40;;
12635;SDS011;6383;50.830;7.210;2024-01-15T12:18:09;16.80;;;14.95;;
12635;SDS011;6383;50.830;7.210;2024-01-15T12:20:59;19.10;;;16.30;;
12635;SDS011;6383;50.830;7.210;2024-01-15T12:23:39;16.38;;;11.98;;
12635;SDS011;6383;50.830;7.210;2024-01-15T12:26:24;14.67;;;11.33;;
12635;SDS011;6383;50.830;7.210;2024-01-15T12:29:01;16.65;;;11.75;;
12635;SDS011;6383;50.830;7.210;2024-01-15T12:31:47;19.30;;;14.27;;
12635;SDS011;6383;50.830;7.210;2024-01-15T12:34:24;13.47;;;11.27;;
12635;SDS011;6383;50.830;7.210;2024-01-15T12:37:03;19.13;;;12.80;;
12635;SDS011;6383;50.830;7.210;2024-01-15T12:43:05;16.20;;;11.00;;
12635;SDS011;6383;50.830;7.210;2024-01-15T12:45:57;22.40;;;12.25;;
12635;SDS011;6383;50.830;7.210;2024-01-15T12:48:51;19.10;;;11.07;;
12635;SDS011;6383;50.830;7.210;2024-01-15T12:51:40;19.02;;;10.02;;
12635;SDS011;6383;50.830;7.210;2024-01-15T12:54:26;18.37;;;9.63;;
12635;SDS011;6383;50.830;7.210;2024-01-15T12:57:10;25.52;;;16.10;;
12635;SDS011;6383;50.830;7.210;2024-01-15T12:59:47;17.02;;;8.75;;
12635;SDS011;6383;50.830;7.210;2024-01-15T13:02:22;22.08;;;13.32;;
12635;SDS011;6383;50.830;7.210;2024-01-15T13:05:03;16.38;;;7.28;;
12635;SDS011;6383;50.830;7.210;2024-01-15T13:07:50;13.48;;;6.80;;
12635;SDS011;6383;50.830;7.210;2024-01-15T13:10:32;20.27;;;8.27;;
12635;SDS011;6383;50.830;7.210;2024-01-15T13:13:20;17.23;;;6.57;;
12635;SDS011;6383;50.830;7.210;2024-01-15T13:16:03;18.23;;;7.67;;
12635;SDS011;6383;50.830;7.210;2024-01-15T13:18:38;12.13;;;5.32;;
12635;SDS011;6383;50.830;7.210;2024-01-15T13:21:18;14.52;;;5.70;;
12635;SDS011;6383;50.830;7.210;2024-01-15T13:23:54;15.55;;;6.05;;
12635;SDS011;6383;50.830;7.210;2024-01-15T13:26:34;14.55;;;6.47;;
12635;SDS011;6383;50.830;7.210;2024-01-15T13:29:09;15.45;;;4.80;;
12635;SDS011;6383;50.830;7.210;2024-01-15T13:31:47;11.40;;;4.30;;
12635;SDS011;6383;50.830;7.210;2024-01-15T13:34:27;12.83;;;5.00;;
12635;SDS011;6383;50.830;7.210;2024-01-15T13:37:03;13.73;;;4.03;;
12635;SDS011;6383;50.830;7.210;2024-01-15T13:39:43;11.13;;;4.65;;
12635;SDS011;6383;50.830;7.210;2024-01-15T13:42:21;10.65;;;4.88;;
12635;SDS011;6383;50.830;7.210;2024-01-15T13:45:08;15.60;;;5.90;;
12635;SDS011;6383;50.830;7.210;2024-01-15T13:47:58;10.90;;;5.10;;
12635;SDS011;6383;50.830;7.210;2024-01-15T13:50:35;15.80;;;9.27;;
12635;SDS011;6383;50.830;7.210;2024-01-15T13:53:09;10.48;;;6.50;;
12635;SDS011;6383;50.830;7.210;2024-01-15T13:55:46;12.02;;;7.13;;
12635;SDS011;6383;50.830;7.210;2024-01-15T13:58:20;15.07;;;5.85;;
12635;SDS011;6383;50.830;7.210;2024-01-15T14:00:56;8.75;;;4.90;;
12635;SDS011;6383;50.830;7.210;2024-01-15T14:03:41;10.73;;;3.55;;
12635;SDS011;6383;50.830;7.210;2024-01-15T14:06:26;9.68;;;3.92;;
12635;SDS011;6383;50.830;7.210;2024-01-15T14:09:06;8.77;;;4.88;;
12635;SDS011;6383;50.830;7.210;2024-01-15T14:11:47;9.45;;;5.13;;
12635;SDS011;6383;50.830;7.210;2024-01-15T14:14:27;10.20;;;5.00;;
12635;SDS011;6383;50.830;7.210;2024-01-15T14:17:13;7.88;;;3.95;;
12635;SDS011;6383;50.830;7.210;2024-01-15T14:19:57;12.03;;;4.03;;
12635;SDS011;6383;50.830;7.210;2024-01-15T14:22:34;6.47;;;3.10;;
12635;SDS011;6383;50.830;7.210;2024-01-15T14:25:08;10.25;;;4.00;;
12635;SDS011;6383;50.830;7.210;2024-01-15T14:27:56;8.30;;;3.55;;
12635;SDS011;6383;50.830;7.210;2024-01-15T14:30:35;7.45;;;3.75;;
12635;SDS011;6383;50.830;7.210;2024-01-15T14:33:19;7.43;;;3.65;;
12635;SDS011;6383;50.830;7.210;2024-01-15T14:35:58;7.53;;;3.50;;
12635;SDS011;6383;50.830;7.210;2024-01-15T14:38:34;5.88;;;3.80;;
12635;SDS011;6383;50.830;7.210;2024-01-15T14:41:09;5.35;;;2.97;;
12635;SDS011;6383;50.830;7.210;2024-01-15T14:43:46;8.63;;;2.95;;
12635;SDS011;6383;50.830;7.210;2024-01-15T14:46:22;8.98;;;3.10;;
12635;SDS011;6383;50.830;7.210;2024-01-15T14:48:57;6.88;;;4.35;;
12635;SDS011;6383;50.830;7.210;2024-01-15T14:51:39;6.80;;;3.13;;
12635;SDS011;6383;50.830;7.210;2024-01-15T14:54:14;10.23;;;5.78;;
12635;SDS011;6383;50.830;7.210;2024-01-15T14:57:01;8.53;;;3.50;;
12635;SDS011;6383;50.830;7.210;2024-01-15T14:59:43;7.35;;;2.70;;
12635;SDS011;6383;50.830;7.210;2024-01-15T15:02:16;5.93;;;2.70;;
12635;SDS011;6383;50.830;7.210;2024-01-15T15:04:58;11.52;;;3.00;;
12635;SDS011;6383;50.830;7.210;2024-01-15T15:07:40;5.80;;;2.58;;
12635;SDS011;6383;50.830;7.210;2024-01-15T15:10:37;5.10;;;2.28;;
12635;SDS011;6383;50.830;7.210;2024-01-15T15:13:15;7.05;;;2.90;;
12635;SDS011;6383;50.830;7.210;2024-01-15T15:15:54;7.53;;;2.70;;
12635;SDS011;6383;50.830;7.210;2024-01-15T15:18:27;5.63;;;2.67;;
12635;SDS011;6383;50.830;7.210;2024-01-15T15:21:05;4.65;;;2.60;;
12635;SDS011;6383;50.830;7.210;2024-01-15T15:23:43;4.90;;;3.05;;
12635;SDS011;6383;50.830;7.210;2024-01-15T15:26:42;4.57;;;2.83;;
12635;SDS011;6383;50.830;7.210;2024-01-15T15:29:19;5.07;;;3.08;;
12635;SDS011;6383;50.830;7.210;2024-01-15T15:31:54;4.72;;;2.80;;
12635;SDS011;6383;50.830;7.210;2024-01-15T15:34:29;4.70;;;2.60;;
12635;SDS011;6383;50.830;7.210;2024-01-15T15:37:02;5.22;;;2.67;;
12635;SDS011;6383;50.830;7.210;2024-01-15T15:39:39;4.35;;;2.70;;
12635;SDS011;6383;50.830;7.210;2024-01-15T15:42:28;7.73;;;4.80;;
12635;SDS011;6383;50.830;7.210;2024-01-15T15:45:05;8.95;;;4.78;;
12635;SDS011;6383;50.830;7.210;2024-01-15T15:47:53;4.95;;;4.43;;
12635;SDS011;6383;50.830;7.210;2024-01-15T15:50:33;6.43;;;2.70;;
12635;SDS011;6383;50.830;7.210;2024-01-15T15:53:09;4.38;;;3.63;;
12635;SDS011;6383;50.830;7.210;2024-01-15T15:55:52;8.20;;;4.13;;
12635;SDS011;6383;50.830;7.210;2024-01-15T15:58:27;7.13;;;4.00;;
12635;SDS011;6383;50.830;7.210;2024-01-15T16:01:01;21.33;;;15.43;;
12635;SDS011;6383;50.830;7.210;2024-01-15T16:03:45;11.57;;;6.00;;
12635;SDS011;6383;50.830;7.210;2024-01-15T16:06:33;10.20;;;4.13;;
12635;SDS011;6383;50.830;7.210;2024-01-15T16:09:15;7.30;;;3.28;;
12635;SDS011;6383;50.830;7.210;2024-01-15T16:11:57;9.80;;;5.65;;
12635;SDS011;6383;50.830;7.210;2024-01-15T16:14:33;8.20;;;4.15;;
12635;SDS011;6383;50.830;7.210;2024-01-15T16:17:15;7.57;;;4.78;;
12635;SDS011;6383;50.830;7.210;2024-01-15T16:20:05;7.30;;;4.20;;
12635;SDS011;6383;50.830;7.210;2024-01-15T16:22:40;6.22;;;4.40;;
12635;SDS011;6383;50.830;7.210;2024-01-15T16:25:14;7.25;;;3.88;;
12635;SDS011;6383;50.830;7.210;2024-01-15T16:27:57;7.63;;;5.38;;
12635;SDS011;6383;50.830;7.210;2024-01-15T16:30:35;5.70;;;4.07;;
12635;SDS011;6383;50.830;7.210;2024-01-15T16:33:20;11.68;;;8.02;;
12635;SDS011;6383;50.830;7.210;2024-01-15T16:35:54;7.15;;;6.05;;
12635;SDS011;6383;50.830;7.210;2024-01-15T16:38:31;10.73;;;8.13;;
12635;SDS011;6383;50.830;7.210;2024-01-15T16:41:12;15.38;;;13.63;;
12635;SDS011;6383;50.830;7.210;2024-01-15T16:43:52;22.55;;;18.88;;
12635;SDS011;6383;50.830;7.210;2024-01-15T16:46:29;14.40;;;10.13;;
12635;SDS011;6383;50.830;7.210;2024-01-15T16:49:10;20.73;;;17.80;;
12635;SDS011;6383;50.830;7.210;2024-01-15T16:51:48;24.08;;;17.92;;
12635;SDS011;6383;50.830;7.210;2024-01-15T16:54:44;19.23;;;14.52;;
12635;SDS011;6383;50.830;7.210;2024-01-15T16:57:22;6.97;;;5.47;;
12635;SDS011;6383;50.830;7.210;2024-01-15T17:00:12;5.73;;;4.83;;